Vollerosa — LHOU — position and weather

sailwx.info

Track history (hours):
 
Tides and Currents Weather Stations Pressure Air Temp Water Temp Dewpoint Dewpoint Depression Visibility Wind Speed Wind Dir Waves Ship Positions

Vollerosa

Last reported at 2018-Apr-17 20:19 UTC. Time now 2018-Apr-20 05:09 UTC.
Position N 58°01' E 007°29'.

Length 20 m.

Type: Fishing. MMSI: 257005140.

Date/timePositionNaut miles runAvg speedWind from/ knotsBaromVisibWave heightAir tempDewpointWater temp
2018-Apr-17 20:19N 58°01' E 007°29'0 0.0
2018-Apr-17 19:57N 58°01' E 007°29'0 0.0
2018-Apr-17 19:27N 58°01' E 007°29'0 0.0
2018-Apr-17 18:58N 58°01' E 007°29'3 0.9
2018-Apr-17 15:11N 57°58' E 007°26'2 8.5
2018-Apr-17 14:56N 57°57' E 007°22'4 8.9
2018-Apr-17 14:28N 57°56' E 007°14'4 8.9
2018-Apr-17 14:00N 57°56' E 007°07'4 8.7
2018-Apr-17 13:30N 57°56' E 006°59'4 8.2
2018-Apr-17 13:00N 57°57' E 006°51'4 7.8
2018-Apr-17 12:30N 57°58' E 006°44'4 7.3
2018-Apr-17 12:00N 57°59' E 006°38'4 7.2
2018-Apr-17 11:30N 58°01' E 006°32'3 6.9
2018-Apr-17 11:00N 58°02' E 006°26'4 7.4
2018-Apr-17 10:29N 58°03' E 006°19'4 8.2
2018-Apr-17 10:00N 58°03' E 006°11'4 7.9
2018-Apr-17 09:30N 58°04' E 006°04'13 0.7
2018-Apr-16 13:36N 58°17' E 005°54'1 7.9
2018-Apr-16 13:28N 58°17' E 005°55'4 7.9
2018-Apr-16 13:00N 58°21' E 005°59'4 7.4
2018-Apr-16 12:30N 58°24' E 005°60'3 5.5
2018-Apr-16 12:00N 58°27' E 005°59'0 0.0
2018-Apr-16 11:30N 58°27' E 005°59'0 0.0
2018-Apr-16 11:00N 58°27' E 005°59'0 0.0
2018-Apr-16 10:30N 58°27' E 005°59'0 0.0
2018-Apr-16 10:00N 58°27' E 005°59'0 0.0
2018-Apr-16 09:30N 58°27' E 005°59'0 0.0
2018-Apr-16 09:00N 58°27' E 005°59'0 0.0
2018-Apr-16 08:30N 58°27' E 005°59'0 0.0
2018-Apr-16 08:00N 58°27' E 005°59'0 0.0
2018-Apr-16 07:30N 58°27' E 005°59'0 0.0
2018-Apr-16 07:00N 58°27' E 005°59'0 0.0
2018-Apr-16 06:30N 58°27' E 005°59'0 0.0
2018-Apr-16 06:00N 58°27' E 005°59'0 0.0
2018-Apr-16 05:30N 58°27' E 005°59'0 0.0
2018-Apr-16 05:00N 58°27' E 005°59'0 0.0
2018-Apr-16 04:30N 58°27' E 005°59'0 0.0
2018-Apr-16 04:00N 58°27' E 005°59'0 0.0
2018-Apr-16 03:30N 58°27' E 005°59'0 0.0
2018-Apr-16 03:00N 58°27' E 005°59'0 0.0
2018-Apr-16 02:30N 58°27' E 005°59'0 0.0
2018-Apr-16 02:00N 58°27' E 005°59'0 0.0
2018-Apr-16 01:30N 58°27' E 005°59'0 0.0
2018-Apr-16 01:00N 58°27' E 005°59'0 0.0
2018-Apr-16 00:30N 58°27' E 005°59'0 0.0
2018-Apr-16 00:00N 58°27' E 005°59'0 0.0
2018-Apr-15 23:30N 58°27' E 005°59'0 0.0
2018-Apr-15 23:00N 58°27' E 005°59'0 0.0
2018-Apr-15 22:30N 58°27' E 005°59'0 0.0
2018-Apr-15 22:00N 58°27' E 005°59'0 0.0
2018-Apr-15 21:30N 58°27' E 005°59'0 0.0
2018-Apr-15 21:00N 58°27' E 005°59'0 0.0
2018-Apr-15 20:30N 58°27' E 005°59'0 0.0
2018-Apr-15 19:59N 58°27' E 005°59'0 0.0
2018-Apr-15 19:30N 58°27' E 005°59'0 0.0
2018-Apr-15 19:00N 58°27' E 005°59'0 0.0
2018-Apr-15 18:30N 58°27' E 005°59'0 0.0
2018-Apr-15 18:00N 58°27' E 005°59'0 0.0
2018-Apr-15 17:30N 58°27' E 005°59'0 0.0
2018-Apr-15 17:00N 58°27' E 005°59'0 0.0
2018-Apr-15 16:30N 58°27' E 005°59'0 0.0
2018-Apr-15 16:00N 58°27' E 005°59'0 0.0
2018-Apr-15 15:30N 58°27' E 005°59'0 0.0
2018-Apr-15 15:00N 58°27' E 005°59'0 0.0
2018-Apr-15 14:30N 58°27' E 005°59'0 0.0
2018-Apr-15 14:00N 58°27' E 005°59'0 0.0
2018-Apr-15 13:30N 58°27' E 005°59'0 0.0
2018-Apr-15 13:00N 58°27' E 005°59'0 0.0
2018-Apr-15 12:30N 58°27' E 005°59'0 0.0
2018-Apr-15 12:00N 58°27' E 005°59'0 0.0
2018-Apr-15 11:30N 58°27' E 005°59'0 0.0
2018-Apr-15 11:00N 58°27' E 005°59'0 0.0
2018-Apr-15 10:30N 58°27' E 005°59'0 0.0
2018-Apr-15 10:00N 58°27' E 005°59'0 0.0
2018-Apr-15 09:30N 58°27' E 005°59'0 0.0
2018-Apr-15 09:00N 58°27' E 005°59'0 0.0
2018-Apr-15 08:30N 58°27' E 005°59'0 0.0
2018-Apr-15 08:00N 58°27' E 005°59'0 0.0
2018-Apr-15 07:30N 58°27' E 005°59'0 0.0
2018-Apr-15 07:00N 58°27' E 005°59'0 0.0
2018-Apr-15 06:30N 58°27' E 005°59'0 0.0
2018-Apr-15 06:00N 58°27' E 005°59'0 0.0
2018-Apr-15 05:30N 58°27' E 005°59'0 0.0
2018-Apr-15 05:00N 58°27' E 005°59'0 0.0
2018-Apr-15 04:30N 58°27' E 005°59'0 0.0
2018-Apr-15 04:00N 58°27' E 005°59'0 0.0
2018-Apr-15 03:30N 58°27' E 005°59'0 0.0
2018-Apr-15 03:00N 58°27' E 005°59'0 0.0
2018-Apr-15 02:30N 58°27' E 005°59'0 0.0
2018-Apr-15 02:00N 58°27' E 005°59'0 0.0
2018-Apr-15 01:30N 58°27' E 005°59'0 0.0
2018-Apr-15 01:00N 58°27' E 005°59'0 0.0
2018-Apr-15 00:30N 58°27' E 005°59'0 0.0
2018-Apr-15 00:00N 58°27' E 005°59'0 0.0
2018-Apr-14 23:30N 58°27' E 005°59'0 0.0
2018-Apr-14 22:58N 58°27' E 005°59'0 0.0
2018-Apr-14 22:30N 58°27' E 005°59'0 0.0
2018-Apr-14 22:00N 58°27' E 005°59'0 0.0
2018-Apr-14 21:30N 58°27' E 005°59'0 0.0
2018-Apr-14 21:00N 58°27' E 005°59'0 0.0
2018-Apr-14 20:30N 58°27' E 005°59'0 0.0
2018-Apr-14 20:00N 58°27' E 005°59'0 0.0
2018-Apr-14 19:30N 58°27' E 005°59'0 0.0
2018-Apr-14 19:00N 58°27' E 005°59'0 0.0
2018-Apr-14 18:30N 58°27' E 005°59'0 0.0
2018-Apr-14 18:00N 58°27' E 005°59'0 0.0
2018-Apr-14 17:30N 58°27' E 005°59'0 0.0
2018-Apr-14 17:00N 58°27' E 005°59'0 0.0
2018-Apr-14 16:30N 58°27' E 005°59'0 0.0
2018-Apr-14 16:00N 58°27' E 005°59'0 0.0
2018-Apr-14 15:30N 58°27' E 005°59'0 0.0
2018-Apr-14 15:00N 58°27' E 005°59'0 0.0
2018-Apr-14 14:30N 58°27' E 005°59'0 0.0
2018-Apr-14 14:00N 58°27' E 005°59'0 0.0
2018-Apr-14 13:30N 58°27' E 005°59'0 0.0
2018-Apr-14 13:00N 58°27' E 005°59'0 0.0
2018-Apr-14 12:30N 58°27' E 005°59'0 0.0
2018-Apr-14 12:00N 58°27' E 005°59'0 0.0
2018-Apr-14 11:30N 58°27' E 005°59'0 0.0
2018-Apr-14 11:00N 58°27' E 005°59'0 0.0
2018-Apr-14 10:30N 58°27' E 005°59'0 0.0
2018-Apr-14 10:00N 58°27' E 005°59'0 0.0
2018-Apr-14 09:30N 58°27' E 005°59'0 0.0
2018-Apr-14 09:00N 58°27' E 005°59'0 0.0
2018-Apr-14 08:30N 58°27' E 005°59'0 0.0
2018-Apr-14 08:00N 58°27' E 005°59'0 0.0
2018-Apr-14 07:30N 58°27' E 005°59'0 0.0
2018-Apr-14 07:00N 58°27' E 005°59'0 0.0
2018-Apr-14 06:30N 58°27' E 005°59'0 0.0
2018-Apr-14 06:00N 58°27' E 005°59'0 0.0
2018-Apr-14 05:31N 58°27' E 005°59'0 0.0
2018-Apr-14 05:00N 58°27' E 005°59'0 0.0
2018-Apr-14 04:30N 58°27' E 005°59'0 0.0
2018-Apr-14 04:00N 58°27' E 005°59'0 0.0
2018-Apr-14 03:30N 58°27' E 005°59'0 0.0
2018-Apr-14 03:00N 58°27' E 005°59'0 0.0
2018-Apr-14 02:30N 58°27' E 005°59'0 0.0
2018-Apr-14 02:00N 58°27' E 005°59'0 0.0
2018-Apr-14 01:30N 58°27' E 005°59'0 0.0
2018-Apr-14 01:00N 58°27' E 005°59'0 0.0
2018-Apr-14 00:30N 58°27' E 005°59'0 0.0
2018-Apr-14 00:00N 58°27' E 005°59'0 0.0
2018-Apr-13 23:30N 58°27' E 005°59'0 0.0
2018-Apr-13 23:00N 58°27' E 005°59'0 0.0
2018-Apr-13 22:30N 58°27' E 005°59'0 0.0
2018-Apr-13 22:00N 58°27' E 005°59'0 0.0
2018-Apr-13 21:30N 58°27' E 005°59'0 0.0
2018-Apr-13 21:00N 58°27' E 005°59'0 0.0
2018-Apr-13 20:30N 58°27' E 005°59'0 0.0
2018-Apr-13 19:59N 58°27' E 005°59'0 0.0
2018-Apr-13 19:30N 58°27' E 005°59'0 0.0
2018-Apr-13 19:00N 58°27' E 005°59'0 0.0
2018-Apr-13 18:30N 58°27' E 005°59'0 0.0
2018-Apr-13 18:00N 58°27' E 005°59'0 0.0
2018-Apr-13 17:30N 58°27' E 005°59'0 0.0
2018-Apr-13 17:00N 58°27' E 005°59'0 0.0
2018-Apr-13 16:30N 58°27' E 005°59'0 0.0
2018-Apr-13 16:00N 58°27' E 005°59'0 0.0
2018-Apr-13 15:30N 58°27' E 005°59'0 0.0
2018-Apr-13 15:00N 58°27' E 005°59'0 0.0
2018-Apr-13 14:29N 58°27' E 005°59'0 0.0
2018-Apr-13 14:00N 58°27' E 005°59'0 0.0
2018-Apr-13 13:30N 58°27' E 005°59'0 0.0
2018-Apr-13 13:00N 58°27' E 005°59'0 0.0
2018-Apr-13 12:30N 58°27' E 005°59'0 0.0
2018-Apr-13 12:00N 58°27' E 005°59'0 0.0
2018-Apr-13 11:30N 58°27' E 005°59'0 0.0
2018-Apr-13 11:00N 58°27' E 005°59'0 0.0
2018-Apr-13 10:30N 58°27' E 005°59'0 0.0
2018-Apr-13 10:00N 58°27' E 005°59'0 0.0
2018-Apr-13 09:30N 58°27' E 005°59'0 0.0
2018-Apr-13 09:00N 58°27' E 005°59'0 0.0
2018-Apr-13 08:30N 58°27' E 005°59'0 0.0
2018-Apr-13 08:00N 58°27' E 005°59'0 0.0
2018-Apr-13 07:30N 58°27' E 005°59'0 0.0
2018-Apr-13 07:00N 58°27' E 005°59'0 0.0
2018-Apr-13 06:30N 58°27' E 005°59'0 0.0
2018-Apr-13 06:00N 58°27' E 005°59'0 0.0
2018-Apr-13 05:30N 58°27' E 005°59'0 0.0
2018-Apr-13 05:00N 58°27' E 005°59'0 0.0
2018-Apr-13 04:30N 58°27' E 005°59'0 0.0
2018-Apr-13 04:00N 58°27' E 005°59'0 0.0
2018-Apr-13 03:30N 58°27' E 005°59'0 0.0
2018-Apr-13 03:00N 58°27' E 005°59'0 0.0
2018-Apr-13 02:30N 58°27' E 005°59'0 0.0
2018-Apr-13 02:00N 58°27' E 005°59'0 0.0
2018-Apr-13 01:30N 58°27' E 005°59'0 0.0
2018-Apr-13 01:00N 58°27' E 005°59'0 0.0
2018-Apr-13 00:30N 58°27' E 005°59'0 0.0
2018-Apr-13 00:00N 58°27' E 005°59'0 0.0
2018-Apr-12 23:30N 58°27' E 005°59'0 0.0
2018-Apr-12 23:00N 58°27' E 005°59'0 0.0
2018-Apr-12 22:30N 58°27' E 005°59'0 0.0
2018-Apr-12 22:00N 58°27' E 005°59'0 0.0
2018-Apr-12 21:30N 58°27' E 005°59'0 0.0
2018-Apr-12 21:00N 58°27' E 005°59'0 0.0
2018-Apr-12 20:30N 58°27' E 005°59'0 0.0
2018-Apr-12 20:00N 58°27' E 005°59'0 0.0
2018-Apr-12 19:30N 58°27' E 005°59'0 0.1
2018-Apr-12 19:00N 58°27' E 005°59'0 0.0
2018-Apr-12 18:30N 58°27' E 005°59'0 0.0
2018-Apr-12 18:00N 58°27' E 005°59'0 0.0
2018-Apr-12 17:30N 58°27' E 005°59'0 0.0
2018-Apr-12 17:00N 58°27' E 005°59'0 0.0
2018-Apr-12 16:30N 58°27' E 005°59'0 0.0
2018-Apr-12 16:00N 58°27' E 005°59'0 0.0
2018-Apr-12 15:30N 58°27' E 005°59'0 0.0
2018-Apr-12 15:00N 58°27' E 005°59'0 0.0
2018-Apr-12 14:30N 58°27' E 005°59'0 0.0
2018-Apr-12 14:00N 58°27' E 005°59'0 0.0
2018-Apr-12 13:30N 58°27' E 005°59'0 0.0
2018-Apr-12 13:00N 58°27' E 005°59'0 0.0
2018-Apr-12 12:30N 58°27' E 005°59'0 0.0
2018-Apr-12 12:00N 58°27' E 005°59'0 0.0
2018-Apr-12 11:30N 58°27' E 005°59'0 0.0
2018-Apr-12 11:00N 58°27' E 005°59'0 0.0
2018-Apr-12 10:30N 58°27' E 005°59'0 0.0
2018-Apr-12 10:00N 58°27' E 005°59'0 0.0
2018-Apr-12 09:30N 58°27' E 005°59'0 0.0
2018-Apr-12 09:00N 58°27' E 005°59'0 0.0
2018-Apr-12 08:30N 58°27' E 005°59'0 0.0
2018-Apr-12 08:00N 58°27' E 005°59'0 0.0
2018-Apr-12 07:30N 58°27' E 005°59'0 0.0
2018-Apr-12 07:00N 58°27' E 005°59'0 0.0
2018-Apr-12 06:30N 58°27' E 005°59'0 0.0
2018-Apr-12 06:00N 58°27' E 005°59'0 0.0
2018-Apr-12 05:30N 58°27' E 005°59'0 0.0
2018-Apr-12 05:00N 58°27' E 005°59'0 0.0
2018-Apr-12 04:30N 58°27' E 005°59'0 0.0
2018-Apr-12 04:00N 58°27' E 005°59'0 0.0
2018-Apr-12 03:30N 58°27' E 005°59'0 0.0
2018-Apr-12 03:00N 58°27' E 005°59'0 0.0
2018-Apr-12 02:30N 58°27' E 005°59'0 0.0
2018-Apr-12 02:00N 58°27' E 005°59'0 0.0
2018-Apr-12 01:30N 58°27' E 005°59'0 0.0
2018-Apr-12 01:00N 58°27' E 005°59'0 0.0
2018-Apr-12 00:30N 58°27' E 005°59'0 0.0
2018-Apr-12 00:00N 58°27' E 005°59'0 0.0
2018-Apr-11 23:30N 58°27' E 005°59'0 0.0
2018-Apr-11 23:00N 58°27' E 005°59'0 0.0
2018-Apr-11 22:30N 58°27' E 005°59'0 0.0
2018-Apr-11 22:00N 58°27' E 005°59'0 0.0
2018-Apr-11 21:30N 58°27' E 005°59'0 0.0
2018-Apr-11 21:00N 58°27' E 005°59'0 0.0
2018-Apr-11 20:30N 58°27' E 005°59'0 0.0
2018-Apr-11 20:00N 58°27' E 005°59'0 0.0
2018-Apr-11 19:30N 58°27' E 005°59'0 0.0
2018-Apr-11 18:59N 58°27' E 005°59'0 0.0
2018-Apr-11 18:30N 58°27' E 005°59'0 0.0
2018-Apr-11 18:00N 58°27' E 005°59'0 0.0
2018-Apr-11 17:30N 58°27' E 005°59'0 0.0
2018-Apr-11 17:00N 58°27' E 005°59'0 0.0
2018-Apr-11 16:30N 58°27' E 005°59'0 0.0
2018-Apr-11 16:00N 58°27' E 005°59'0 0.0
2018-Apr-11 15:30N 58°27' E 005°59'0 0.0
2018-Apr-11 15:00N 58°27' E 005°59'0 0.0
2018-Apr-11 14:30N 58°27' E 005°59'0 0.0
2018-Apr-11 14:00N 58°27' E 005°59'0 0.0
2018-Apr-11 13:30N 58°27' E 005°59'0 0.0
2018-Apr-11 13:00N 58°27' E 005°59'0 0.0
2018-Apr-11 12:30N 58°27' E 005°59'0 0.0
2018-Apr-11 12:00N 58°27' E 005°59'0 0.0
2018-Apr-11 11:30N 58°27' E 005°59'0 0.0
2018-Apr-11 11:00N 58°27' E 005°59'0 0.0
2018-Apr-11 10:30N 58°27' E 005°59'0 0.0
2018-Apr-11 10:00N 58°27' E 005°59'0 0.0
2018-Apr-11 09:30N 58°27' E 005°59'0 0.0
2018-Apr-11 09:00N 58°27' E 005°59'0 0.0
2018-Apr-11 08:30N 58°27' E 005°59'0 0.0
2018-Apr-11 08:00N 58°27' E 005°59'0 0.0
2018-Apr-11 07:30N 58°27' E 005°59'0 0.0
2018-Apr-11 07:00N 58°27' E 005°59'0 0.0
2018-Apr-11 06:30N 58°27' E 005°59'0 0.0
2018-Apr-11 06:00N 58°27' E 005°59'0 0.1
2018-Apr-11 05:30N 58°27' E 005°59'0 0.0
2018-Apr-11 05:00N 58°27' E 005°59'0 0.0
2018-Apr-11 04:30N 58°27' E 005°59'0 0.0
2018-Apr-11 04:00N 58°27' E 005°59'0 0.0
2018-Apr-11 03:30N 58°27' E 005°59'0 0.0
2018-Apr-11 03:00N 58°27' E 005°59'0 0.0
2018-Apr-11 02:30N 58°27' E 005°59'0 0.0
2018-Apr-11 02:00N 58°27' E 005°59'0 0.0
2018-Apr-11 01:30N 58°27' E 005°59'0 0.0
2018-Apr-11 01:00N 58°27' E 005°59'0 0.0
2018-Apr-11 00:30N 58°27' E 005°59'0 0.0
2018-Apr-11 00:00N 58°27' E 005°59'0 0.0
2018-Apr-10 23:30N 58°27' E 005°59'0 0.0
2018-Apr-10 23:00N 58°27' E 005°59'0 0.0
2018-Apr-10 22:30N 58°27' E 005°59'0 0.0
2018-Apr-10 22:00N 58°27' E 005°59'0 0.0
2018-Apr-10 21:30N 58°27' E 005°59'0 0.0
2018-Apr-10 21:00N 58°27' E 005°59'0 0.0
2018-Apr-10 20:30N 58°27' E 005°59'0 0.0
2018-Apr-10 20:00N 58°27' E 005°59'0 0.0
2018-Apr-10 19:30N 58°27' E 005°59'0 0.0
2018-Apr-10 19:00N 58°27' E 005°59'0 0.0
2018-Apr-10 18:30N 58°27' E 005°59'0 0.7
2018-Apr-10 18:00N 58°27' E 005°59'4 7.1
2018-Apr-10 17:30N 58°23' E 006°00'5 8.4
2018-Apr-10 16:58N 58°19' E 006°05'4 8.8
2018-Apr-10 16:30N 58°16' E 006°10'4 8.5
2018-Apr-10 16:00N 58°13' E 006°16'4 8.1
2018-Apr-10 15:30N 58°11' E 006°22'4 7.2
2018-Apr-10 15:00N 58°08' E 006°26'1 3.0
2018-Apr-10 14:30N 58°07' E 006°28'4 8.6
2018-Apr-10 14:00N 58°04' E 006°35'4 9.0
2018-Apr-10 13:30N 58°02' E 006°42'4 8.6
2018-Apr-10 13:00N 58°00' E 006°49'5 9.0
2018-Apr-10 12:30N 57°59' E 006°57'5 9.2
2018-Apr-10 12:00N 57°58' E 007°06'  
Track history (hours):
 
Tides and Currents Weather Stations Pressure Air Temp Water Temp Dewpoint Dewpoint Depression Visibility Wind Speed Wind Dir Waves Ship Positions

Vollerosa

Last reported at 2018-Apr-17 20:19 UTC. Time now 2018-Apr-20 05:09 UTC.
Position N 58°01' E 007°29'.

Length 20 m.

Type: Fishing. MMSI: 257005140.

Date/timePositionNaut miles runAvg speedWind from/ knotsBaromVisibWave heightAir tempDewpointWater temp
2018-Apr-17 20:19N 58°01' E 007°29'0 0.0
2018-Apr-17 19:57N 58°01' E 007°29'0 0.0
2018-Apr-17 19:27N 58°01' E 007°29'0 0.0
2018-Apr-17 18:58N 58°01' E 007°29'3 0.9
2018-Apr-17 15:11N 57°58' E 007°26'2 8.5
2018-Apr-17 14:56N 57°57' E 007°22'4 8.9
2018-Apr-17 14:28N 57°56' E 007°14'4 8.9
2018-Apr-17 14:00N 57°56' E 007°07'4 8.7
2018-Apr-17 13:30N 57°56' E 006°59'4 8.2
2018-Apr-17 13:00N 57°57' E 006°51'4 7.8
2018-Apr-17 12:30N 57°58' E 006°44'4 7.3
2018-Apr-17 12:00N 57°59' E 006°38'4 7.2
2018-Apr-17 11:30N 58°01' E 006°32'3 6.9
2018-Apr-17 11:00N 58°02' E 006°26'4 7.4
2018-Apr-17 10:29N 58°03' E 006°19'4 8.2
2018-Apr-17 10:00N 58°03' E 006°11'4 7.9
2018-Apr-17 09:30N 58°04' E 006°04'13 0.7
2018-Apr-16 13:36N 58°17' E 005°54'1 7.9
2018-Apr-16 13:28N 58°17' E 005°55'4 7.9
2018-Apr-16 13:00N 58°21' E 005°59'4 7.4
2018-Apr-16 12:30N 58°24' E 005°60'3 5.5
2018-Apr-16 12:00N 58°27' E 005°59'0 0.0
2018-Apr-16 11:30N 58°27' E 005°59'0 0.0
2018-Apr-16 11:00N 58°27' E 005°59'0 0.0
2018-Apr-16 10:30N 58°27' E 005°59'0 0.0
2018-Apr-16 10:00N 58°27' E 005°59'0 0.0
2018-Apr-16 09:30N 58°27' E 005°59'0 0.0
2018-Apr-16 09:00N 58°27' E 005°59'0 0.0
2018-Apr-16 08:30N 58°27' E 005°59'0 0.0
2018-Apr-16 08:00N 58°27' E 005°59'0 0.0
2018-Apr-16 07:30N 58°27' E 005°59'0 0.0
2018-Apr-16 07:00N 58°27' E 005°59'0 0.0
2018-Apr-16 06:30N 58°27' E 005°59'0 0.0
2018-Apr-16 06:00N 58°27' E 005°59'0 0.0
2018-Apr-16 05:30N 58°27' E 005°59'0 0.0
2018-Apr-16 05:00N 58°27' E 005°59'0 0.0
2018-Apr-16 04:30N 58°27' E 005°59'0 0.0
2018-Apr-16 04:00N 58°27' E 005°59'0 0.0
2018-Apr-16 03:30N 58°27' E 005°59'0 0.0
2018-Apr-16 03:00N 58°27' E 005°59'0 0.0
2018-Apr-16 02:30N 58°27' E 005°59'0 0.0
2018-Apr-16 02:00N 58°27' E 005°59'0 0.0
2018-Apr-16 01:30N 58°27' E 005°59'0 0.0
2018-Apr-16 01:00N 58°27' E 005°59'0 0.0
2018-Apr-16 00:30N 58°27' E 005°59'0 0.0
2018-Apr-16 00:00N 58°27' E 005°59'0 0.0
2018-Apr-15 23:30N 58°27' E 005°59'0 0.0
2018-Apr-15 23:00N 58°27' E 005°59'0 0.0
2018-Apr-15 22:30N 58°27' E 005°59'0 0.0
2018-Apr-15 22:00N 58°27' E 005°59'0 0.0
2018-Apr-15 21:30N 58°27' E 005°59'0 0.0
2018-Apr-15 21:00N 58°27' E 005°59'0 0.0
2018-Apr-15 20:30N 58°27' E 005°59'0 0.0
2018-Apr-15 19:59N 58°27' E 005°59'0 0.0
2018-Apr-15 19:30N 58°27' E 005°59'0 0.0
2018-Apr-15 19:00N 58°27' E 005°59'0 0.0
2018-Apr-15 18:30N 58°27' E 005°59'0 0.0
2018-Apr-15 18:00N 58°27' E 005°59'0 0.0
2018-Apr-15 17:30N 58°27' E 005°59'0 0.0
2018-Apr-15 17:00N 58°27' E 005°59'0 0.0
2018-Apr-15 16:30N 58°27' E 005°59'0 0.0
2018-Apr-15 16:00N 58°27' E 005°59'0 0.0
2018-Apr-15 15:30N 58°27' E 005°59'0 0.0
2018-Apr-15 15:00N 58°27' E 005°59'0 0.0
2018-Apr-15 14:30N 58°27' E 005°59'0 0.0
2018-Apr-15 14:00N 58°27' E 005°59'0 0.0
2018-Apr-15 13:30N 58°27' E 005°59'0 0.0
2018-Apr-15 13:00N 58°27' E 005°59'0 0.0
2018-Apr-15 12:30N 58°27' E 005°59'0 0.0
2018-Apr-15 12:00N 58°27' E 005°59'0 0.0
2018-Apr-15 11:30N 58°27' E 005°59'0 0.0
2018-Apr-15 11:00N 58°27' E 005°59'0 0.0
2018-Apr-15 10:30N 58°27' E 005°59'0 0.0
2018-Apr-15 10:00N 58°27' E 005°59'0 0.0
2018-Apr-15 09:30N 58°27' E 005°59'0 0.0
2018-Apr-15 09:00N 58°27' E 005°59'0 0.0
2018-Apr-15 08:30N 58°27' E 005°59'0 0.0
2018-Apr-15 08:00N 58°27' E 005°59'0 0.0
2018-Apr-15 07:30N 58°27' E 005°59'0 0.0
2018-Apr-15 07:00N 58°27' E 005°59'0 0.0
2018-Apr-15 06:30N 58°27' E 005°59'0 0.0
2018-Apr-15 06:00N 58°27' E 005°59'0 0.0
2018-Apr-15 05:30N 58°27' E 005°59'0 0.0
2018-Apr-15 05:00N 58°27' E 005°59'0 0.0
2018-Apr-15 04:30N 58°27' E 005°59'0 0.0
2018-Apr-15 04:00N 58°27' E 005°59'0 0.0
2018-Apr-15 03:30N 58°27' E 005°59'0 0.0
2018-Apr-15 03:00N 58°27' E 005°59'0 0.0
2018-Apr-15 02:30N 58°27' E 005°59'0 0.0
2018-Apr-15 02:00N 58°27' E 005°59'0 0.0
2018-Apr-15 01:30N 58°27' E 005°59'0 0.0
2018-Apr-15 01:00N 58°27' E 005°59'0 0.0
2018-Apr-15 00:30N 58°27' E 005°59'0 0.0
2018-Apr-15 00:00N 58°27' E 005°59'0 0.0
2018-Apr-14 23:30N 58°27' E 005°59'0 0.0
2018-Apr-14 22:58N 58°27' E 005°59'0 0.0
2018-Apr-14 22:30N 58°27' E 005°59'0 0.0
2018-Apr-14 22:00N 58°27' E 005°59'0 0.0
2018-Apr-14 21:30N 58°27' E 005°59'0 0.0
2018-Apr-14 21:00N 58°27' E 005°59'0 0.0
2018-Apr-14 20:30N 58°27' E 005°59'0 0.0
2018-Apr-14 20:00N 58°27' E 005°59'0 0.0
2018-Apr-14 19:30N 58°27' E 005°59'0 0.0
2018-Apr-14 19:00N 58°27' E 005°59'0 0.0
2018-Apr-14 18:30N 58°27' E 005°59'0 0.0
2018-Apr-14 18:00N 58°27' E 005°59'0 0.0
2018-Apr-14 17:30N 58°27' E 005°59'0 0.0
2018-Apr-14 17:00N 58°27' E 005°59'0 0.0
2018-Apr-14 16:30N 58°27' E 005°59'0 0.0
2018-Apr-14 16:00N 58°27' E 005°59'0 0.0
2018-Apr-14 15:30N 58°27' E 005°59'0 0.0
2018-Apr-14 15:00N 58°27' E 005°59'0 0.0
2018-Apr-14 14:30N 58°27' E 005°59'0 0.0
2018-Apr-14 14:00N 58°27' E 005°59'0 0.0
2018-Apr-14 13:30N 58°27' E 005°59'0 0.0
2018-Apr-14 13:00N 58°27' E 005°59'0 0.0
2018-Apr-14 12:30N 58°27' E 005°59'0 0.0
2018-Apr-14 12:00N 58°27' E 005°59'0 0.0
2018-Apr-14 11:30N 58°27' E 005°59'0 0.0
2018-Apr-14 11:00N 58°27' E 005°59'0 0.0
2018-Apr-14 10:30N 58°27' E 005°59'0 0.0
2018-Apr-14 10:00N 58°27' E 005°59'0 0.0
2018-Apr-14 09:30N 58°27' E 005°59'0 0.0
2018-Apr-14 09:00N 58°27' E 005°59'0 0.0
2018-Apr-14 08:30N 58°27' E 005°59'0 0.0
2018-Apr-14 08:00N 58°27' E 005°59'0 0.0
2018-Apr-14 07:30N 58°27' E 005°59'0 0.0
2018-Apr-14 07:00N 58°27' E 005°59'0 0.0
2018-Apr-14 06:30N 58°27' E 005°59'0 0.0
2018-Apr-14 06:00N 58°27' E 005°59'0 0.0
2018-Apr-14 05:31N 58°27' E 005°59'0 0.0
2018-Apr-14 05:00N 58°27' E 005°59'0 0.0
2018-Apr-14 04:30N 58°27' E 005°59'0 0.0
2018-Apr-14 04:00N 58°27' E 005°59'0 0.0
2018-Apr-14 03:30N 58°27' E 005°59'0 0.0
2018-Apr-14 03:00N 58°27' E 005°59'0 0.0
2018-Apr-14 02:30N 58°27' E 005°59'0 0.0
2018-Apr-14 02:00N 58°27' E 005°59'0 0.0
2018-Apr-14 01:30N 58°27' E 005°59'0 0.0
2018-Apr-14 01:00N 58°27' E 005°59'0 0.0
2018-Apr-14 00:30N 58°27' E 005°59'0 0.0
2018-Apr-14 00:00N 58°27' E 005°59'0 0.0
2018-Apr-13 23:30N 58°27' E 005°59'0 0.0
2018-Apr-13 23:00N 58°27' E 005°59'0 0.0
2018-Apr-13 22:30N 58°27' E 005°59'0 0.0
2018-Apr-13 22:00N 58°27' E 005°59'0 0.0
2018-Apr-13 21:30N 58°27' E 005°59'0 0.0
2018-Apr-13 21:00N 58°27' E 005°59'0 0.0
2018-Apr-13 20:30N 58°27' E 005°59'0 0.0
2018-Apr-13 19:59N 58°27' E 005°59'0 0.0
2018-Apr-13 19:30N 58°27' E 005°59'0 0.0
2018-Apr-13 19:00N 58°27' E 005°59'0 0.0
2018-Apr-13 18:30N 58°27' E 005°59'0 0.0
2018-Apr-13 18:00N 58°27' E 005°59'0 0.0
2018-Apr-13 17:30N 58°27' E 005°59'0 0.0
2018-Apr-13 17:00N 58°27' E 005°59'0 0.0
2018-Apr-13 16:30N 58°27' E 005°59'0 0.0
2018-Apr-13 16:00N 58°27' E 005°59'0 0.0
2018-Apr-13 15:30N 58°27' E 005°59'0 0.0
2018-Apr-13 15:00N 58°27' E 005°59'0 0.0
2018-Apr-13 14:29N 58°27' E 005°59'0 0.0
2018-Apr-13 14:00N 58°27' E 005°59'0 0.0
2018-Apr-13 13:30N 58°27' E 005°59'0 0.0
2018-Apr-13 13:00N 58°27' E 005°59'0 0.0
2018-Apr-13 12:30N 58°27' E 005°59'0 0.0
2018-Apr-13 12:00N 58°27' E 005°59'0 0.0
2018-Apr-13 11:30N 58°27' E 005°59'0 0.0
2018-Apr-13 11:00N 58°27' E 005°59'0 0.0
2018-Apr-13 10:30N 58°27' E 005°59'0 0.0
2018-Apr-13 10:00N 58°27' E 005°59'0 0.0
2018-Apr-13 09:30N 58°27' E 005°59'0 0.0
2018-Apr-13 09:00N 58°27' E 005°59'0 0.0
2018-Apr-13 08:30N 58°27' E 005°59'0 0.0
2018-Apr-13 08:00N 58°27' E 005°59'0 0.0
2018-Apr-13 07:30N 58°27' E 005°59'0 0.0
2018-Apr-13 07:00N 58°27' E 005°59'0 0.0
2018-Apr-13 06:30N 58°27' E 005°59'0 0.0
2018-Apr-13 06:00N 58°27' E 005°59'0 0.0
2018-Apr-13 05:30N 58°27' E 005°59'0 0.0
2018-Apr-13 05:00N 58°27' E 005°59'0 0.0
2018-Apr-13 04:30N 58°27' E 005°59'0 0.0
2018-Apr-13 04:00N 58°27' E 005°59'0 0.0
2018-Apr-13 03:30N 58°27' E 005°59'0 0.0
2018-Apr-13 03:00N 58°27' E 005°59'0 0.0
2018-Apr-13 02:30N 58°27' E 005°59'0 0.0
2018-Apr-13 02:00N 58°27' E 005°59'0 0.0
2018-Apr-13 01:30N 58°27' E 005°59'0 0.0
2018-Apr-13 01:00N 58°27' E 005°59'0 0.0
2018-Apr-13 00:30N 58°27' E 005°59'0 0.0
2018-Apr-13 00:00N 58°27' E 005°59'0 0.0
2018-Apr-12 23:30N 58°27' E 005°59'0 0.0
2018-Apr-12 23:00N 58°27' E 005°59'0 0.0
2018-Apr-12 22:30N 58°27' E 005°59'0 0.0
2018-Apr-12 22:00N 58°27' E 005°59'0 0.0
2018-Apr-12 21:30N 58°27' E 005°59'0 0.0
2018-Apr-12 21:00N 58°27' E 005°59'0 0.0
2018-Apr-12 20:30N 58°27' E 005°59'0 0.0
2018-Apr-12 20:00N 58°27' E 005°59'0 0.0
2018-Apr-12 19:30N 58°27' E 005°59'0 0.1
2018-Apr-12 19:00N 58°27' E 005°59'0 0.0
2018-Apr-12 18:30N 58°27' E 005°59'0 0.0
2018-Apr-12 18:00N 58°27' E 005°59'0 0.0
2018-Apr-12 17:30N 58°27' E 005°59'0 0.0
2018-Apr-12 17:00N 58°27' E 005°59'0 0.0
2018-Apr-12 16:30N 58°27' E 005°59'0 0.0
2018-Apr-12 16:00N 58°27' E 005°59'0 0.0
2018-Apr-12 15:30N 58°27' E 005°59'0 0.0
2018-Apr-12 15:00N 58°27' E 005°59'0 0.0
2018-Apr-12 14:30N 58°27' E 005°59'0 0.0
2018-Apr-12 14:00N 58°27' E 005°59'0 0.0
2018-Apr-12 13:30N 58°27' E 005°59'0 0.0
2018-Apr-12 13:00N 58°27' E 005°59'0 0.0
2018-Apr-12 12:30N 58°27' E 005°59'0 0.0
2018-Apr-12 12:00N 58°27' E 005°59'0 0.0
2018-Apr-12 11:30N 58°27' E 005°59'0 0.0
2018-Apr-12 11:00N 58°27' E 005°59'0 0.0
2018-Apr-12 10:30N 58°27' E 005°59'0 0.0
2018-Apr-12 10:00N 58°27' E 005°59'0 0.0
2018-Apr-12 09:30N 58°27' E 005°59'0 0.0
2018-Apr-12 09:00N 58°27' E 005°59'0 0.0
2018-Apr-12 08:30N 58°27' E 005°59'0 0.0
2018-Apr-12 08:00N 58°27' E 005°59'0 0.0
2018-Apr-12 07:30N 58°27' E 005°59'0 0.0
2018-Apr-12 07:00N 58°27' E 005°59'0 0.0
2018-Apr-12 06:30N 58°27' E 005°59'0 0.0
2018-Apr-12 06:00N 58°27' E 005°59'0 0.0
2018-Apr-12 05:30N 58°27' E 005°59'0 0.0
2018-Apr-12 05:00N 58°27' E 005°59'0 0.0
2018-Apr-12 04:30N 58°27' E 005°59'0 0.0
2018-Apr-12 04:00N 58°27' E 005°59'0 0.0
2018-Apr-12 03:30N 58°27' E 005°59'0 0.0
2018-Apr-12 03:00N 58°27' E 005°59'0 0.0
2018-Apr-12 02:30N 58°27' E 005°59'0 0.0
2018-Apr-12 02:00N 58°27' E 005°59'0 0.0
2018-Apr-12 01:30N 58°27' E 005°59'0 0.0
2018-Apr-12 01:00N 58°27' E 005°59'0 0.0
2018-Apr-12 00:30N 58°27' E 005°59'0 0.0
2018-Apr-12 00:00N 58°27' E 005°59'0 0.0
2018-Apr-11 23:30N 58°27' E 005°59'0 0.0
2018-Apr-11 23:00N 58°27' E 005°59'0 0.0
2018-Apr-11 22:30N 58°27' E 005°59'0 0.0
2018-Apr-11 22:00N 58°27' E 005°59'0 0.0
2018-Apr-11 21:30N 58°27' E 005°59'0 0.0
2018-Apr-11 21:00N 58°27' E 005°59'0 0.0
2018-Apr-11 20:30N 58°27' E 005°59'0 0.0
2018-Apr-11 20:00N 58°27' E 005°59'0 0.0
2018-Apr-11 19:30N 58°27' E 005°59'0 0.0
2018-Apr-11 18:59N 58°27' E 005°59'0 0.0
2018-Apr-11 18:30N 58°27' E 005°59'0 0.0
2018-Apr-11 18:00N 58°27' E 005°59'0 0.0
2018-Apr-11 17:30N 58°27' E 005°59'0 0.0
2018-Apr-11 17:00N 58°27' E 005°59'0 0.0
2018-Apr-11 16:30N 58°27' E 005°59'0 0.0
2018-Apr-11 16:00N 58°27' E 005°59'0 0.0
2018-Apr-11 15:30N 58°27' E 005°59'0 0.0
2018-Apr-11 15:00N 58°27' E 005°59'0 0.0
2018-Apr-11 14:30N 58°27' E 005°59'0 0.0
2018-Apr-11 14:00N 58°27' E 005°59'0 0.0
2018-Apr-11 13:30N 58°27' E 005°59'0 0.0
2018-Apr-11 13:00N 58°27' E 005°59'0 0.0
2018-Apr-11 12:30N 58°27' E 005°59'0 0.0
2018-Apr-11 12:00N 58°27' E 005°59'0 0.0
2018-Apr-11 11:30N 58°27' E 005°59'0 0.0
2018-Apr-11 11:00N 58°27' E 005°59'0 0.0
2018-Apr-11 10:30N 58°27' E 005°59'0 0.0
2018-Apr-11 10:00N 58°27' E 005°59'0 0.0
2018-Apr-11 09:30N 58°27' E 005°59'0 0.0
2018-Apr-11 09:00N 58°27' E 005°59'0 0.0
2018-Apr-11 08:30N 58°27' E 005°59'0 0.0
2018-Apr-11 08:00N 58°27' E 005°59'0 0.0
2018-Apr-11 07:30N 58°27' E 005°59'0 0.0
2018-Apr-11 07:00N 58°27' E 005°59'0 0.0
2018-Apr-11 06:30N 58°27' E 005°59'0 0.0
2018-Apr-11 06:00N 58°27' E 005°59'0 0.1
2018-Apr-11 05:30N 58°27' E 005°59'0 0.0
2018-Apr-11 05:00N 58°27' E 005°59'0 0.0
2018-Apr-11 04:30N 58°27' E 005°59'0 0.0
2018-Apr-11 04:00N 58°27' E 005°59'0 0.0
2018-Apr-11 03:30N 58°27' E 005°59'0 0.0
2018-Apr-11 03:00N 58°27' E 005°59'0 0.0
2018-Apr-11 02:30N 58°27' E 005°59'0 0.0
2018-Apr-11 02:00N 58°27' E 005°59'0 0.0
2018-Apr-11 01:30N 58°27' E 005°59'0 0.0
2018-Apr-11 01:00N 58°27' E 005°59'0 0.0
2018-Apr-11 00:30N 58°27' E 005°59'0 0.0
2018-Apr-11 00:00N 58°27' E 005°59'0 0.0
2018-Apr-10 23:30N 58°27' E 005°59'0 0.0
2018-Apr-10 23:00N 58°27' E 005°59'0 0.0
2018-Apr-10 22:30N 58°27' E 005°59'0 0.0
2018-Apr-10 22:00N 58°27' E 005°59'0 0.0
2018-Apr-10 21:30N 58°27' E 005°59'0 0.0
2018-Apr-10 21:00N 58°27' E 005°59'0 0.0
2018-Apr-10 20:30N 58°27' E 005°59'0 0.0
2018-Apr-10 20:00N 58°27' E 005°59'0 0.0
2018-Apr-10 19:30N 58°27' E 005°59'0 0.0
2018-Apr-10 19:00N 58°27' E 005°59'0 0.0
2018-Apr-10 18:30N 58°27' E 005°59'0 0.7
2018-Apr-10 18:00N 58°27' E 005°59'4 7.1
2018-Apr-10 17:30N 58°23' E 006°00'5 8.4
2018-Apr-10 16:58N 58°19' E 006°05'4 8.8
2018-Apr-10 16:30N 58°16' E 006°10'4 8.5
2018-Apr-10 16:00N 58°13' E 006°16'4 8.1
2018-Apr-10 15:30N 58°11' E 006°22'4 7.2
2018-Apr-10 15:00N 58°08' E 006°26'1 3.0
2018-Apr-10 14:30N 58°07' E 006°28'4 8.6
2018-Apr-10 14:00N 58°04' E 006°35'4 9.0
2018-Apr-10 13:30N 58°02' E 006°42'4 8.6
2018-Apr-10 13:00N 58°00' E 006°49'5 9.0
2018-Apr-10 12:30N 57°59' E 006°57'5 9.2
2018-Apr-10 12:00N 57°58' E 007°06'  

Dump ship's entire track history